Time;durP1;ratioP1;P1;durP2;ratioP2;P2;SDS_P1;SDS_P2;PMS_P1;PMS_P2;Temp;Humidity;BMP_temperature;BMP_pressure;BME280_temperature;BME280_humidity;BME280_pressure;Samples;Min_cycle;Max_cycle;Signal;HPM_P1;HPM_P2
2022/11/21 00:43:38;;;;;;;40.55;37.17;;;;;;;10.80;100.00;99980.84;5898096;24;20501;-88
2022/11/21 01:07:33;;;;;;;40.30;37.20;;;;;;;11.03;100.00;99958.88;6095938;23;20054;-85
2022/11/21 01:35:04;;;;;;;47.20;42.80;;;;;;;9.98;100.00;99966.06;5851785;24;20067;-87
2022/11/21 02:23:12;;;;;;;40.33;36.97;;;;;;;9.59;100.00;99842.63;6065006;23;20031;-85
2022/11/21 02:50:55;;;;;;;43.90;40.53;;;;;;;9.38;100.00;99754.59;6090695;23;20518;-86
2022/11/21 02:54:00;;;;;;;41.78;38.28;;;;;;;8.94;100.00;99735.28;6202730;23;20532;-86
2022/11/21 02:57:17;;;;;;;41.60;38.33;;;;;;;9.16;100.00;99742.78;6085201;23;20038;-87
2022/11/21 03:22:00;;;;;;;38.60;35.13;;;;;;;8.42;100.00;99688.94;5946248;23;20039;-88
2022/11/21 03:38:38;;;;;;;40.53;36.53;;;;;;;8.62;100.00;99715.22;5813649;24;20035;-90
2022/11/21 03:45:35;;;;;;;;;;;;;;;;;;;;;
2022/11/21 03:52:12;;;;;;;41.03;36.67;;;;;;;8.58;100.00;99735.22;5981524;23;20107;-86
2022/11/21 03:58:59;;;;;;;36.95;33.67;;;;;;;8.99;100.00;99853.81;5926985;24;20348;-86
2022/11/21 04:30:34;;;;;;;;;;;;;;;7.84;100.00;99802.78;5937621;23;20464;-89
2022/11/21 04:33:39;;;;;;;38.65;34.53;;;;;;;7.69;100.00;99808.34;6126191;23;19928;-89
2022/11/21 05:26:55;;;;;;;37.47;33.97;;;;;;;7.52;100.00;99712.84;5846514;24;20480;-88
2022/11/21 05:40:58;;;;;;;35.60;32.05;;;;;;;7.64;100.00;99719.09;5792939;24;20096;-87
2022/11/21 05:44:37;;;;;;;45.75;38.58;;;;;;;7.72;100.00;99715.41;5854020;24;20098;-89
2022/11/21 05:54:30;;;;;;;49.05;40.90;;;;;;;7.66;100.00;99727.63;5970679;23;20174;-85
2022/11/21 08:09:34;;;;;;;;;;;;;;;;;;;;;
2022/11/21 09:25:51;;;;;;;44.15;40.05;;;;;;;9.91;100.00;99925.53;6008591;23;20036;-87
2022/11/21 09:28:23;;;;;;;48.70;44.08;;;;;;;10.04;100.00;99935.19;6275226;22;20030;-87
2022/11/21 09:51:36;;;;;;;43.55;39.55;;;;;;;10.53;100.00;99960.78;6184391;22;20505;-89
2022/11/21 10:01:31;;;;;;;;;;;;;;;;;;;;;
2022/11/21 10:04:47;;;;;;;42.38;38.47;;;;;;;10.36;100.00;99970.38;6132823;22;20084;-88
2022/11/21 10:08:30;;;;;;;;;;;;;;;;;;;;;
2022/11/21 10:18:33;;;;;;;;;;;;;;;;;;;;;
2022/11/21 12:00:09;;;;;;;33.63;31.33;;;;;;;8.89;100.00;100058.19;6005590;23;20083;-87
2022/11/21 14:08:22;;;;;;;37.75;35.65;;;;;;;9.30;100.00;100111.81;5075658;27;20360;-85
2022/11/21 14:10:50;;;;;;;35.42;33.72;;;;;;;9.08;100.00;100120.06;5057461;28;20106;-85
2022/11/21 14:13:23;;;;;;;39.33;37.33;;;;;;;8.84;100.00;100128.72;5010198;28;20108;-85
2022/11/21 14:16:20;;;;;;;;;;;;;;;;;;;;;
2022/11/21 14:50:32;;;;;;;35.60;33.80;;;;;;;7.86;100.00;100155.03;4995798;28;20061;-84
2022/11/21 14:59:52;;;;;;;32.30;30.67;;;;;;;8.06;100.00;100161.16;4991597;28;20105;-85
2022/11/21 15:03:07;;;;;;;;;;;;;;;;;;;;;
2022/11/21 15:08:57;;;;;;;36.28;34.28;;;;;;;7.28;100.00;100176.63;5019261;28;20072;-85
2022/11/21 15:11:48;;;;;;;37.28;35.40;;;;;;;7.17;100.00;100174.53;4999250;28;20097;-83
2022/11/21 15:14:22;;;;;;;37.75;35.90;;;;;;;7.11;100.00;100176.16;5010731;28;20046;-83
2022/11/21 15:16:52;;;;;;;37.33;35.42;;;;;;;6.93;100.00;100179.34;5010920;28;20060;-83
2022/11/21 15:19:25;;;;;;;36.95;35.05;;;;;;;6.95;100.00;100189.69;4988366;28;20060;-85
2022/11/21 15:21:55;;;;;;;38.72;36.72;;;;;;;6.97;100.00;100196.41;4992562;28;20096;-85
2022/11/21 15:24:31;;;;;;;35.33;33.42;;;;;;;6.85;100.00;100188.22;4982941;28;20058;-86
2022/11/21 15:26:58;;;;;;;37.25;35.28;;;;;;;7.05;100.00;100198.06;4987614;28;20042;-85
2022/11/21 15:29:25;;;;;;;39.17;37.08;;;;;;;6.81;100.00;100194.91;4985916;28;20065;-86
2022/11/21 15:32:15;;;;;;;36.78;34.88;;;;;;;6.99;100.00;100191.75;4983056;28;20077;-85
2022/11/21 15:35:28;;;;;;;38.67;36.78;;;;;;;7.03;100.00;100181.59;4993706;28;20054;-86
2022/11/21 15:38:13;;;;;;;36.45;34.55;;;;;;;6.95;100.00;100185.22;4988516;28;20050;-83
2022/11/21 15:40:43;;;;;;;35.00;33.30;;;;;;;6.99;100.00;100183.00;4986468;28;20438;-85
2022/11/21 15:43:10;;;;;;;36.90;35.15;;;;;;;7.01;100.00;100188.91;4986605;28;20459;-84
2022/11/21 15:45:37;;;;;;;33.58;31.95;;;;;;;6.97;100.00;100182.38;4985633;28;20074;-84
2022/11/21 15:48:05;;;;;;;40.08;38.08;;;;;;;6.97;100.00;100179.75;4989400;28;20057;-85
2022/11/21 15:50:36;;;;;;;36.53;34.83;;;;;;;7.04;100.00;100180.59;4980883;28;20051;-85
2022/11/21 15:53:06;;;;;;;37.20;35.40;;;;;;;7.03;100.00;100200.91;4981736;28;20074;-85
2022/11/21 15:55:33;;;;;;;39.92;37.92;;;;;;;7.10;100.00;100185.91;4992169;28;20051;-86
2022/11/21 15:58:00;;;;;;;42.30;40.10;;;;;;;6.93;100.00;100181.97;4991673;28;20043;-85
2022/11/21 16:00:27;;;;;;;38.53;36.53;;;;;;;6.91;100.00;100183.16;4989710;28;20454;-86
2022/11/21 16:02:57;;;;;;;37.10;35.17;;;;;;;6.83;100.00;100181.50;4983985;28;20039;-86
2022/11/21 16:05:24;;;;;;;47.05;44.22;;;;;;;7.32;100.00;100191.06;4984677;28;20088;-85
2022/11/21 16:07:52;;;;;;;37.53;35.53;;;;;;;6.81;100.00;100209.91;4988188;28;20047;-86
2022/11/21 16:10:20;;;;;;;43.67;40.78;;;;;;;6.79;100.00;100207.47;4987142;28;20112;-86
2022/11/21 16:12:47;;;;;;;37.67;35.72;;;;;;;6.67;100.00;100210.84;4996356;28;20081;-86
2022/11/21 16:15:14;;;;;;;34.15;32.35;;;;;;;6.62;100.00;100211.41;4984353;28;20518;-85
2022/11/21 16:17:41;;;;;;;34.97;33.25;;;;;;;6.48;100.00;100207.06;4989944;28;20047;-85
2022/11/21 16:20:08;;;;;;;35.95;34.05;;;;;;;6.45;100.00;100224.06;4999664;28;20089;-86
2022/11/21 16:22:35;;;;;;;34.88;32.97;;;;;;;6.67;100.00;100213.47;4988771;28;20051;-86
2022/11/21 16:25:04;;;;;;;36.22;34.20;;;;;;;6.59;100.00;100209.13;4989483;28;20053;-85
2022/11/21 16:27:34;;;;;;;34.38;32.58;;;;;;;6.36;100.00;100202.28;5001392;28;20065;-86
2022/11/21 16:30:01;;;;;;;34.65;32.70;;;;;;;6.38;100.00;100210.84;4982772;28;20179;-85
2022/11/21 16:32:28;;;;;;;35.58;33.67;;;;;;;6.17;100.00;100216.09;4987091;28;20051;-82
2022/11/21 16:34:57;;;;;;;38.20;35.72;;;;;;;6.13;100.00;100207.75;4980524;28;20103;-85
2022/11/21 16:37:23;;;;;;;38.33;36.00;;;;;;;6.02;100.00;100215.34;4985421;28;20466;-85
2022/11/21 16:39:51;;;;;;;36.08;33.85;;;;;;;6.02;100.00;100221.47;4982211;28;20046;-85
2022/11/21 16:42:20;;;;;;;35.72;33.83;;;;;;;6.00;100.00;100207.66;4977269;28;20097;-85
2022/11/21 16:44:46;;;;;;;39.40;37.40;;;;;;;6.03;100.00;100204.63;4990750;28;20058;-84
2022/11/21 16:47:13;;;;;;;37.97;35.92;;;;;;;5.92;100.00;100221.72;4985024;28;20046;-83
2022/11/21 16:49:43;;;;;;;40.83;37.85;;;;;;;5.87;100.00;100202.19;4978623;28;20057;-85
2022/11/21 16:52:10;;;;;;;45.03;41.83;;;;;;;5.77;100.00;100202.50;4979090;28;20128;-84
2022/11/21 16:54:37;;;;;;;64.13;51.08;;;;;;;5.76;100.00;100221.16;4980840;28;20557;-86
2022/11/21 16:57:04;;;;;;;113.72;68.95;;;;;;;5.79;100.00;100223.41;4982929;28;20058;-86
2022/11/21 16:59:32;;;;;;;61.40;49.58;;;;;;;5.71;100.00;100230.41;4992154;28;20463;-83
2022/11/21 17:02:09;;;;;;;258.08;90.35;;;;;;;5.80;100.00;100231.13;4981483;28;20050;-84
2022/11/21 17:04:36;;;;;;;45.00;40.28;;;;;;;5.79;100.00;100223.41;4986076;28;20056;-86
2022/11/21 17:07:03;;;;;;;534.65;217.55;;;;;;;5.41;100.00;100228.84;4982874;28;20131;-82
2022/11/21 17:09:30;;;;;;;43.95;39.95;;;;;;;5.55;100.00;100235.09;4987985;28;20414;-85
2022/11/21 17:11:57;;;;;;;41.25;38.22;;;;;;;5.52;100.00;100244.19;4977923;28;20541;-84
2022/11/21 17:14:24;;;;;;;40.00;36.75;;;;;;;5.51;100.00;100247.84;4985060;28;20141;-85
2022/11/21 17:16:52;;;;;;;41.65;38.67;;;;;;;5.47;100.00;100259.72;4988001;28;20050;-84
2022/11/21 17:19:19;;;;;;;38.95;36.63;;;;;;;5.31;100.00;100263.38;4989291;28;20054;-85
2022/11/21 17:21:46;;;;;;;35.90;33.53;;;;;;;5.41;100.00;100258.63;4991135;28;20047;-85
2022/11/21 17:24:13;;;;;;;35.67;33.58;;;;;;;5.39;100.00;100267.75;4986059;28;20067;-86
2022/11/21 17:26:40;;;;;;;34.70;32.60;;;;;;;5.22;100.00;100283.72;4988473;28;20134;-83
2022/11/21 17:29:07;;;;;;;48.13;44.55;;;;;;;5.36;100.00;100283.91;4990166;28;20050;-83
2022/11/21 17:31:34;;;;;;;280.92;128.82;;;;;;;5.31;100.00;100291.53;4988281;28;20073;-82
2022/11/21 17:34:02;;;;;;;41.42;38.30;;;;;;;5.32;100.00;100278.16;4990581;28;20058;-82
2022/11/21 17:36:33;;;;;;;37.85;35.35;;;;;;;5.36;100.00;100283.91;4986147;28;20061;-87
2022/11/21 17:38:59;;;;;;;35.63;33.22;;;;;;;5.27;100.00;100285.81;4988644;28;20506;-85
2022/11/21 17:41:27;;;;;;;36.70;34.35;;;;;;;5.35;100.00;100290.16;4976350;28;20462;-86
2022/11/21 17:43:55;;;;;;;36.60;34.10;;;;;;;5.40;100.00;100293.06;4981642;28;20061;-86
2022/11/21 17:46:24;;;;;;;34.40;32.25;;;;;;;5.32;100.00;100295.78;4979004;28;20113;-86
2022/11/21 17:48:52;;;;;;;40.55;37.50;;;;;;;5.15;100.00;100292.53;4980933;28;20039;-85
2022/11/21 17:51:24;;;;;;;38.05;35.72;;;;;;;5.29;100.00;100291.69;4982893;28;20125;-86
2022/11/21 17:53:51;;;;;;;37.40;35.33;;;;;;;5.41;100.00;100278.88;4978644;28;20061;-86
2022/11/21 17:56:20;;;;;;;36.75;34.75;;;;;;;5.55;100.00;100278.06;4977553;28;20057;-86
2022/11/21 17:58:48;;;;;;;37.92;35.72;;;;;;;5.66;100.00;100276.78;4978886;28;20039;-87
2022/11/21 18:01:18;;;;;;;37.25;35.05;;;;;;;5.59;100.00;100281.97;4979542;28;20046;-83
2022/11/21 18:03:45;;;;;;;37.03;34.83;;;;;;;5.80;100.00;100286.47;4984761;28;20144;-86
2022/11/21 18:06:13;;;;;;;36.28;34.08;;;;;;;5.66;100.00;100293.41;4981029;28;20145;-86
2022/11/21 18:08:48;;;;;;;37.15;34.95;;;;;;;5.86;100.00;100285.72;4978609;28;20051;-86
2022/11/21 18:11:19;;;;;;;38.95;36.35;;;;;;;5.91;100.00;100279.91;4983311;28;20394;-86
2022/11/21 18:13:47;;;;;;;40.97;38.15;;;;;;;5.87;100.00;100283.91;4977463;28;20391;-84
2022/11/21 18:16:17;;;;;;;39.95;36.95;;;;;;;5.90;100.00;100273.00;4979502;28;20065;-83
2022/11/21 18:18:44;;;;;;;37.63;35.17;;;;;;;6.09;100.00;100284.81;4977051;28;20046;-83
2022/11/21 18:21:12;;;;;;;40.35;37.85;;;;;;;6.09;100.00;100269.78;4988619;28;20054;-85
2022/11/21 18:23:40;;;;;;;40.65;37.92;;;;;;;6.15;100.00;100271.69;4985262;28;20053;-86
2022/11/21 18:26:12;;;;;;;39.38;36.63;;;;;;;6.19;100.00;100275.56;4984077;28;20149;-86
2022/11/21 18:28:38;;;;;;;38.90;36.42;;;;;;;6.44;100.00;100283.09;4982662;28;20058;-86
2022/11/21 18:31:07;;;;;;;40.60;38.00;;;;;;;6.21;100.00;100283.31;4982871;28;20117;-87
2022/11/21 18:33:34;;;;;;;38.92;36.22;;;;;;;6.42;100.00;100285.13;4981526;28;20050;-86
2022/11/21 18:36:01;;;;;;;38.65;36.05;;;;;;;6.16;100.00;100298.88;4984318;28;20050;-86
2022/11/21 18:38:31;;;;;;;37.50;34.97;;;;;;;6.16;100.00;100307.59;4986421;28;20082;-84
2022/11/21 18:41:03;;;;;;;37.42;35.05;;;;;;;6.30;100.00;100305.09;4978672;28;20043;-86
2022/11/21 18:43:31;;;;;;;39.00;36.30;;;;;;;6.15;100.00;100308.59;4981671;28;20051;-83
2022/11/21 18:46:02;;;;;;;40.08;36.80;;;;;;;6.40;100.00;100316.16;4975425;28;20310;-86
2022/11/21 18:48:29;;;;;;;38.28;35.88;;;;;;;6.17;100.00;100327.69;4977860;28;20495;-85
2022/11/21 18:50:56;;;;;;;39.55;37.03;;;;;;;6.11;100.00;100314.41;4945050;28;20498;-85
2022/11/21 18:53:24;;;;;;;39.83;37.10;;;;;;;6.25;100.00;100318.03;4995492;28;20145;-86
2022/11/21 18:55:51;;;;;;;38.20;35.70;;;;;;;6.32;100.00;100317.06;4999203;28;20046;-83
2022/11/21 18:58:17;;;;;;;38.72;36.03;;;;;;;6.25;100.00;100323.31;5011106;28;20054;-83
2022/11/21 19:00:46;;;;;;;37.28;34.67;;;;;;;6.24;100.00;100321.69;5010744;28;20398;-86
2022/11/21 19:03:12;;;;;;;39.53;36.83;;;;;;;6.21;100.00;100330.78;5000874;28;20042;-84
2022/11/21 19:05:41;;;;;;;37.67;35.08;;;;;;;6.11;100.00;100332.88;5014874;28;20304;-85
2022/11/21 19:08:08;;;;;;;38.60;35.85;;;;;;;5.90;100.00;100336.25;5011391;28;20090;-86
2022/11/21 19:10:36;;;;;;;39.33;36.63;;;;;;;6.07;100.00;100358.00;5001362;28;20101;-85
2022/11/21 19:13:03;;;;;;;41.65;38.92;;;;;;;6.20;100.00;100352.84;5014446;28;20054;-85
2022/11/21 19:15:31;;;;;;;41.70;39.13;;;;;;;6.04;100.00;100340.72;5014296;28;20057;-86
2022/11/21 19:17:59;;;;;;;42.03;39.47;;;;;;;6.03;100.00;100357.56;5007181;28;20065;-83
2022/11/21 19:20:25;;;;;;;41.13;38.53;;;;;;;5.88;100.00;100368.06;5009026;28;20057;-86
2022/11/21 19:22:52;;;;;;;43.00;40.20;;;;;;;6.01;100.00;100362.19;5009695;28;20046;-83
2022/11/21 19:25:19;;;;;;;44.33;41.08;;;;;;;5.96;100.00;100359.25;5009597;28;20402;-85
2022/11/21 19:27:46;;;;;;;44.50;41.40;;;;;;;5.92;100.00;100361.44;5013454;28;20386;-85
2022/11/21 19:30:13;;;;;;;41.95;39.15;;;;;;;6.00;100.00;100375.56;5012669;28;20054;-83
2022/11/21 19:32:40;;;;;;;44.53;41.00;;;;;;;5.90;100.00;100376.63;5009300;28;20396;-85
2022/11/21 19:35:10;;;;;;;42.47;39.35;;;;;;;5.94;100.00;100377.91;5011788;28;20046;-86
2022/11/21 19:37:37;;;;;;;45.63;41.95;;;;;;;6.02;100.00;100387.56;5010424;28;20061;-85
2022/11/21 19:40:05;;;;;;;43.72;40.72;;;;;;;5.94;100.00;100400.84;5006973;28;20042;-86
2022/11/21 19:42:32;;;;;;;44.67;41.40;;;;;;;5.91;100.00;100401.97;5011778;28;20050;-83
2022/11/21 19:45:00;;;;;;;42.05;39.25;;;;;;;5.90;100.00;100403.00;5005102;28;20046;-85
2022/11/21 19:47:27;;;;;;;40.42;37.20;;;;;;;5.85;100.00;100410.63;5010334;28;20054;-86
2022/11/21 19:49:55;;;;;;;44.75;41.25;;;;;;;5.73;100.00;100425.25;5010375;28;20057;-84
2022/11/21 19:52:23;;;;;;;45.83;42.55;;;;;;;5.70;100.00;100423.78;5009483;28;20050;-85
2022/11/21 19:54:50;;;;;;;43.78;40.50;;;;;;;5.57;100.00;100423.63;5011279;28;20056;-85
2022/11/21 19:57:17;;;;;;;44.65;41.05;;;;;;;5.59;100.00;100415.50;5011384;28;20046;-86
2022/11/21 19:59:44;;;;;;;51.55;47.58;;;;;;;5.59;100.00;100418.16;5009389;28;20053;-85
2022/11/21 20:02:17;;;;;;;56.17;51.97;;;;;;;5.58;100.00;100411.25;5007013;28;20069;-83
2022/11/21 20:04:45;;;;;;;;;;;;;;;5.55;100.00;100415.06;5011006;28;20045;-86
2022/11/21 20:07:12;;;;;;;51.55;47.75;;;;;;;5.48;100.00;100425.50;5011078;28;19925;-86
2022/11/21 20:09:40;;;;;;;52.15;48.05;;;;;;;5.51;100.00;100427.78;5006663;28;20168;-87
2022/11/21 20:12:07;;;;;;;48.00;44.50;;;;;;;5.55;100.00;100417.69;5007145;28;20410;-86
2022/11/21 20:14:33;;;;;;;50.97;47.28;;;;;;;5.40;100.00;100417.66;5009992;28;20566;-87
2022/11/21 20:17:00;;;;;;;48.22;44.60;;;;;;;5.45;100.00;100425.06;5012324;28;20058;-85
2022/11/21 20:19:28;;;;;;;47.92;44.45;;;;;;;5.40;100.00;100424.75;5009373;28;20041;-84
2022/11/21 20:21:55;;;;;;;45.85;42.35;;;;;;;5.47;100.00;100426.47;5001296;28;20082;-86
2022/11/21 20:24:21;;;;;;;45.42;42.03;;;;;;;5.57;100.00;100428.88;5003992;28;20046;-86
2022/11/21 20:26:50;;;;;;;46.15;42.63;;;;;;;5.38;100.00;100421.47;5014305;28;20047;-84
2022/11/21 20:29:17;;;;;;;46.70;43.10;;;;;;;5.42;100.00;100425.41;5009816;28;20505;-83
2022/11/21 20:31:46;;;;;;;46.85;43.35;;;;;;;5.33;100.00;100419.41;5013683;28;20454;-84
2022/11/21 20:34:14;;;;;;;53.13;49.40;;;;;;;5.35;100.00;100425.28;5016020;28;20115;-83
2022/11/21 20:37:03;;;;;;;54.58;50.58;;;;;;;5.26;100.00;100427.19;5016676;28;20108;-86
2022/11/21 20:39:37;;;;;;;67.13;60.92;;;;;;;5.36;100.00;100432.22;5008016;28;20050;-86
2022/11/21 20:42:18;;;;;;;64.15;57.70;;;;;;;5.19;100.00;100433.34;5005162;28;20050;-86
2022/11/21 20:44:46;;;;;;;64.70;55.75;;;;;;;4.96;100.00;100428.91;5012444;28;20045;-83
2022/11/21 20:47:25;;;;;;;66.28;57.15;;;;;;;5.02;100.00;100428.22;5008594;28;20061;-86
2022/11/21 20:49:57;;;;;;;87.75;70.80;;;;;;;5.03;100.00;100427.22;5006720;28;20049;-85
2022/11/21 20:52:31;;;;;;;64.50;58.33;;;;;;;4.86;100.00;100419.59;4999429;28;20045;-86
2022/11/21 20:54:58;;;;;;;60.35;54.65;;;;;;;4.79;100.00;100414.25;5002232;28;20128;-85
2022/11/21 20:57:28;;;;;;;60.70;55.42;;;;;;;4.63;100.00;100419.59;5004391;28;20042;-83
2022/11/21 20:59:55;;;;;;;63.80;58.42;;;;;;;4.79;100.00;100425.56;5001119;28;20049;-83
2022/11/21 21:02:22;;;;;;;58.00;52.42;;;;;;;4.80;100.00;100424.56;5001590;28;20131;-86
2022/11/21 21:04:49;;;;;;;102.55;74.38;;;;;;;4.78;100.00;100423.09;5002302;28;20050;-86
2022/11/21 21:07:15;;;;;;;69.97;60.20;;;;;;;4.73;100.00;100417.56;5000953;28;20049;-86
2022/11/21 21:09:42;;;;;;;50.97;46.15;;;;;;;4.38;100.00;100419.72;5000988;28;20065;-86
2022/11/21 21:12:09;;;;;;;51.38;46.50;;;;;;;4.34;100.00;100423.72;5003063;28;20054;-84
2022/11/21 21:14:37;;;;;;;65.57;60.00;;;;;;;4.58;100.00;100415.69;5000005;28;20049;-86
2022/11/21 21:17:04;;;;;;;63.50;58.25;;;;;;;4.66;100.00;100417.44;5001219;28;20502;-83
2022/11/21 21:19:31;;;;;;;70.85;64.95;;;;;;;4.78;100.00;100431.84;5008008;28;20046;-86
2022/11/21 21:21:58;;;;;;;253.82;135.85;;;;;;;4.81;100.00;100443.81;5007329;28;20050;-84
2022/11/21 21:24:25;;;;;;;54.85;50.22;;;;;;;4.71;100.00;100438.78;5000750;28;20454;-86
2022/11/21 21:26:51;;;;;;;65.60;59.50;;;;;;;4.89;100.00;100435.88;5001769;28;20454;-83
2022/11/21 21:29:20;;;;;;;80.70;71.45;;;;;;;5.00;100.00;100434.66;4999982;28;20442;-86
2022/11/21 21:31:48;;;;;;;66.45;60.22;;;;;;;5.02;100.00;100427.38;4998330;28;20041;-83
2022/11/21 21:34:15;;;;;;;56.70;51.80;;;;;;;4.80;100.00;100421.13;5003598;28;20046;-86
2022/11/21 21:36:42;;;;;;;62.03;57.22;;;;;;;4.98;100.00;100418.19;4996481;28;20054;-85
2022/11/21 21:39:08;;;;;;;65.28;60.17;;;;;;;4.97;100.00;100424.47;4999522;28;20072;-85
2022/11/21 21:41:38;;;;;;;112.25;99.80;;;;;;;5.08;100.00;100421.41;4995595;28;20368;-86
2022/11/21 21:44:05;;;;;;;70.05;63.90;;;;;;;5.09;100.00;100435.41;4998888;28;20062;-86
2022/11/21 21:46:32;;;;;;;86.72;77.88;;;;;;;4.94;100.00;100428.28;5006360;28;20391;-85
2022/11/21 21:49:00;;;;;;;89.85;80.97;;;;;;;4.87;100.00;100426.50;5001006;28;20042;-83
2022/11/21 21:51:28;;;;;;;75.55;68.22;;;;;;;4.53;100.00;100435.59;5001700;28;20042;-83
2022/11/21 21:53:56;;;;;;;96.70;85.75;;;;;;;4.86;100.00;100430.94;4998076;28;20466;-83
2022/11/21 21:56:25;;;;;;;68.43;62.15;;;;;;;4.95;100.00;100439.63;5000358;28;20064;-83
2022/11/21 21:58:53;;;;;;;71.75;64.45;;;;;;;4.88;100.00;100439.50;4998330;28;20054;-83
2022/11/21 22:01:22;;;;;;;65.18;58.28;;;;;;;4.81;100.00;100444.66;5006112;28;20054;-83
2022/11/21 22:03:52;;;;;;;64.18;57.58;;;;;;;4.69;100.00;100445.19;5006345;28;20046;-83
2022/11/21 22:06:21;;;;;;;65.72;60.45;;;;;;;4.87;100.00;100451.03;5004196;28;20058;-83
2022/11/21 22:08:49;;;;;;;66.90;61.72;;;;;;;4.93;100.00;100442.44;5001129;28;20046;-86
2022/11/21 22:11:17;;;;;;;76.35;70.35;;;;;;;4.89;100.00;100438.50;5003677;28;20045;-86
2022/11/21 22:13:46;;;;;;;76.35;69.80;;;;;;;5.06;100.00;100447.09;5001347;28;20049;-85
2022/11/21 22:16:13;;;;;;;63.25;57.92;;;;;;;5.14;100.00;100447.00;4996111;28;20050;-86
2022/11/21 22:18:41;;;;;;;89.40;80.05;;;;;;;5.22;100.00;100454.84;4999123;28;20050;-86
2022/11/21 22:21:15;;;;;;;97.82;88.53;;;;;;;5.19;100.00;100462.31;5004187;28;20149;-86
2022/11/21 22:23:44;;;;;;;83.40;77.13;;;;;;;5.34;100.00;100460.53;5001658;28;20467;-86
2022/11/21 22:26:12;;;;;;;100.55;92.20;;;;;;;5.28;100.00;100474.41;4998750;28;20051;-85
2022/11/21 22:28:41;;;;;;;82.35;76.57;;;;;;;5.36;100.00;100476.97;5001386;28;20060;-86
2022/11/21 22:31:09;;;;;;;76.38;71.15;;;;;;;5.36;100.00;100484.06;5000962;28;20046;-86
2022/11/21 22:33:37;;;;;;;81.32;75.88;;;;;;;5.22;100.00;100489.09;5004703;28;20045;-86
2022/11/21 22:36:06;;;;;;;78.78;73.43;;;;;;;5.34;100.00;100481.59;5005303;28;20046;-85
2022/11/21 22:38:33;;;;;;;83.25;77.55;;;;;;;5.24;100.00;100481.03;5007518;28;20108;-86
2022/11/21 22:41:03;;;;;;;61.60;57.15;;;;;;;5.40;100.00;100480.06;5005349;28;20054;-83
2022/11/21 22:43:30;;;;;;;57.33;53.00;;;;;;;5.40;100.00;100486.16;5003761;28;20520;-85
2022/11/21 22:46:01;;;;;;;50.05;45.97;;;;;;;5.44;100.00;100482.16;4998576;28;20050;-86
2022/11/21 22:48:28;;;;;;;51.67;47.53;;;;;;;5.50;100.00;100470.91;5005683;28;20046;-86
2022/11/21 22:50:56;;;;;;;52.35;48.08;;;;;;;5.61;100.00;100477.56;5006515;28;20042;-86
2022/11/21 22:53:23;;;;;;;53.47;49.45;;;;;;;5.54;100.00;100470.56;5008081;28;20065;-85
2022/11/21 22:55:58;;;;;;;54.10;49.70;;;;;;;5.63;100.00;100467.69;5007470;28;20054;-86
2022/11/21 22:58:29;;;;;;;55.55;51.22;;;;;;;5.61;100.00;100463.59;5003125;28;20038;-83
2022/11/21 23:00:59;;;;;;;54.97;50.35;;;;;;;5.56;100.00;100461.47;4999812;28;20458;-86
2022/11/21 23:03:26;;;;;;;51.17;47.20;;;;;;;5.38;100.00;100463.63;5000485;28;20047;-85
2022/11/21 23:05:59;;;;;;;52.78;48.63;;;;;;;5.61;100.00;100464.41;5001767;28;20485;-86
2022/11/21 23:08:25;;;;;;;;;;;;;;;6.34;100.00;100461.97;5010102;28;20077;-85
2022/11/21 23:10:52;;;;;;;54.22;50.13;;;;;;;5.58;100.00;100467.41;4998597;28;19926;-87
2022/11/21 23:13:19;;;;;;;55.50;51.10;;;;;;;5.54;100.00;100466.13;5001900;28;20117;-86
2022/11/21 23:15:47;;;;;;;49.90;46.00;;;;;;;5.44;100.00;100466.34;4998202;28;20047;-86
2022/11/21 23:18:15;;;;;;;50.83;47.00;;;;;;;5.51;100.00;100462.03;5004717;28;20062;-86
2022/11/21 23:20:43;;;;;;;48.60;44.58;;;;;;;5.45;100.00;100473.28;5005966;28;20050;-83
2022/11/21 23:23:12;;;;;;;46.13;42.42;;;;;;;5.73;100.00;100475.31;4999130;28;20058;-84
2022/11/21 23:25:38;;;;;;;46.88;42.72;;;;;;;5.31;100.00;100473.25;5003127;28;20053;-85
2022/11/21 23:28:05;;;;;;;47.30;43.40;;;;;;;5.57;100.00;100478.09;5000938;28;20057;-84
2022/11/21 23:30:32;;;;;;;47.38;43.83;;;;;;;5.48;100.00;100486.09;5003986;28;20045;-85
2022/11/21 23:33:00;;;;;;;48.10;43.97;;;;;;;5.61;100.00;100480.22;5004148;28;20080;-83
2022/11/21 23:35:28;;;;;;;52.53;48.38;;;;;;;5.24;100.00;100478.41;5004922;28;20088;-84
2022/11/21 23:37:55;;;;;;;56.80;52.47;;;;;;;5.20;100.00;100487.63;5002318;28;20046;-86
2022/11/21 23:40:22;;;;;;;58.13;53.35;;;;;;;5.11;100.00;100500.03;5003947;28;20425;-86
2022/11/21 23:42:49;;;;;;;56.30;51.35;;;;;;;5.05;100.00;100495.47;5008015;28;20049;-86
2022/11/21 23:45:15;;;;;;;55.17;50.38;;;;;;;4.99;100.00;100499.63;5000452;28;20085;-83
2022/11/21 23:47:42;;;;;;;57.42;52.72;;;;;;;5.06;100.00;100505.03;5001950;28;20046;-85
2022/11/21 23:50:11;;;;;;;56.70;51.97;;;;;;;4.96;100.00;100499.16;5010265;28;20042;-83
2022/11/21 23:52:37;;;;;;;51.88;47.22;;;;;;;5.02;100.00;100499.28;5001543;28;20467;-83
2022/11/21 23:55:05;;;;;;;50.47;46.08;;;;;;;5.10;100.00;100510.75;5000552;28;20058;-83
2022/11/21 23:57:33;;;;;;;51.47;47.08;;;;;;;5.13;100.00;100516.47;5007024;28;20050;-85
